sensor_id;sensor_type;location;lat;lon;timestamp;temperature;humidity
20349;DHT22;10332;50.208;18.988;2023-07-20T00:02:14;22.20;12.00
20349;DHT22;10332;50.208;18.988;2023-07-20T00:04:41;22.20;11.30
20349;DHT22;10332;50.208;18.988;2023-07-20T00:07:09;22.10;10.90
20349;DHT22;10332;50.208;18.988;2023-07-20T00:09:37;22.10;12.80
20349;DHT22;10332;50.208;18.988;2023-07-20T00:12:04;22.00;14.90
20349;DHT22;10332;50.208;18.988;2023-07-20T00:14:32;21.90;17.40
20349;DHT22;10332;50.208;18.988;2023-07-20T00:16:59;21.90;18.90
20349;DHT22;10332;50.208;18.988;2023-07-20T00:19:28;21.80;20.90
20349;DHT22;10332;50.208;18.988;2023-07-20T00:21:56;21.80;22.00
20349;DHT22;10332;50.208;18.988;2023-07-20T00:24:23;21.70;22.10
20349;DHT22;10332;50.208;18.988;2023-07-20T00:26:51;21.70;21.80
20349;DHT22;10332;50.208;18.988;2023-07-20T00:29:19;21.60;22.10
20349;DHT22;10332;50.208;18.988;2023-07-20T00:31:46;21.60;23.80
20349;DHT22;10332;50.208;18.988;2023-07-20T00:34:17;21.50;23.70
20349;DHT22;10332;50.208;18.988;2023-07-20T00:36:45;21.50;23.70
20349;DHT22;10332;50.208;18.988;2023-07-20T00:39:12;21.40;23.40
20349;DHT22;10332;50.208;18.988;2023-07-20T00:41:40;21.40;24.30
20349;DHT22;10332;50.208;18.988;2023-07-20T00:44:07;21.40;24.70
20349;DHT22;10332;50.208;18.988;2023-07-20T00:46:35;21.30;28.40
20349;DHT22;10332;50.208;18.988;2023-07-20T00:49:03;21.30;34.10
20349;DHT22;10332;50.208;18.988;2023-07-20T00:51:31;21.20;39.10
20349;DHT22;10332;50.208;18.988;2023-07-20T00:53:59;21.10;40.10
20349;DHT22;10332;50.208;18.988;2023-07-20T00:56:26;21.00;46.00
20349;DHT22;10332;50.208;18.988;2023-07-20T00:58:54;20.90;44.50
20349;DHT22;10332;50.208;18.988;2023-07-20T01:01:22;20.90;45.90
20349;DHT22;10332;50.208;18.988;2023-07-20T01:03:50;20.90;45.80
20349;DHT22;10332;50.208;18.988;2023-07-20T01:12:13;20.90;49.20
20349;DHT22;10332;50.208;18.988;2023-07-20T01:14:50;20.80;49.20
20349;DHT22;10332;50.208;18.988;2023-07-20T01:17:18;20.80;48.10
20349;DHT22;10332;50.208;18.988;2023-07-20T01:19:46;20.80;50.30
20349;DHT22;10332;50.208;18.988;2023-07-20T01:31:35;20.90;50.00
20349;DHT22;10332;50.208;18.988;2023-07-20T01:34:07;20.90;50.80
20349;DHT22;10332;50.208;18.988;2023-07-20T01:36:39;20.80;59.80
20349;DHT22;10332;50.208;18.988;2023-07-20T01:39:09;20.80;55.20
20349;DHT22;10332;50.208;18.988;2023-07-20T01:41:38;20.70;56.30
20349;DHT22;10332;50.208;18.988;2023-07-20T01:44:06;20.70;56.30
20349;DHT22;10332;50.208;18.988;2023-07-20T01:46:33;20.70;57.60
20349;DHT22;10332;50.208;18.988;2023-07-20T01:49:01;20.70;58.30
20349;DHT22;10332;50.208;18.988;2023-07-20T01:51:28;20.60;59.20
20349;DHT22;10332;50.208;18.988;2023-07-20T01:53:56;20.60;58.60
20349;DHT22;10332;50.208;18.988;2023-07-20T01:56:23;20.50;68.40
20349;DHT22;10332;50.208;18.988;2023-07-20T01:58:51;20.50;70.10
20349;DHT22;10332;50.208;18.988;2023-07-20T02:01:19;20.40;70.20
20349;DHT22;10332;50.208;18.988;2023-07-20T02:03:46;20.20;72.60
20349;DHT22;10332;50.208;18.988;2023-07-20T02:06:14;20.20;75.60
20349;DHT22;10332;50.208;18.988;2023-07-20T02:08:41;20.10;74.90
20349;DHT22;10332;50.208;18.988;2023-07-20T02:11:09;20.10;73.80
20349;DHT22;10332;50.208;18.988;2023-07-20T02:13:36;20.10;75.10
20349;DHT22;10332;50.208;18.988;2023-07-20T02:16:04;20.00;74.20
20349;DHT22;10332;50.208;18.988;2023-07-20T02:18:32;20.00;74.30
20349;DHT22;10332;50.208;18.988;2023-07-20T02:21:00;20.00;74.40
20349;DHT22;10332;50.208;18.988;2023-07-20T02:23:29;19.90;74.00
20349;DHT22;10332;50.208;18.988;2023-07-20T02:25:56;19.90;74.80
20349;DHT22;10332;50.208;18.988;2023-07-20T02:28:24;19.90;75.20
20349;DHT22;10332;50.208;18.988;2023-07-20T02:30:51;19.80;75.10
20349;DHT22;10332;50.208;18.988;2023-07-20T02:33:19;19.80;75.70
20349;DHT22;10332;50.208;18.988;2023-07-20T02:35:47;19.80;76.50
20349;DHT22;10332;50.208;18.988;2023-07-20T02:38:14;19.80;76.80
20349;DHT22;10332;50.208;18.988;2023-07-20T02:40:42;19.80;77.70
20349;DHT22;10332;50.208;18.988;2023-07-20T02:43:09;19.80;78.60
20349;DHT22;10332;50.208;18.988;2023-07-20T02:45:40;19.90;79.00
20349;DHT22;10332;50.208;18.988;2023-07-20T02:48:09;19.90;81.00
20349;DHT22;10332;50.208;18.988;2023-07-20T02:50:37;19.80;79.00
20349;DHT22;10332;50.208;18.988;2023-07-20T02:53:04;19.80;80.10
20349;DHT22;10332;50.208;18.988;2023-07-20T02:55:32;19.80;79.80
20349;DHT22;10332;50.208;18.988;2023-07-20T02:57:59;19.80;80.80
20349;DHT22;10332;50.208;18.988;2023-07-20T03:00:27;19.80;80.40
20349;DHT22;10332;50.208;18.988;2023-07-20T03:02:54;19.70;81.10
20349;DHT22;10332;50.208;18.988;2023-07-20T03:05:23;19.70;80.40
20349;DHT22;10332;50.208;18.988;2023-07-20T03:07:55;19.70;82.20
20349;DHT22;10332;50.208;18.988;2023-07-20T03:10:23;19.70;81.80
20349;DHT22;10332;50.208;18.988;2023-07-20T03:12:50;19.70;81.10
20349;DHT22;10332;50.208;18.988;2023-07-20T03:15:18;19.60;80.10
20349;DHT22;10332;50.208;18.988;2023-07-20T03:17:45;19.60;80.50
20349;DHT22;10332;50.208;18.988;2023-07-20T03:20:13;19.60;80.30
20349;DHT22;10332;50.208;18.988;2023-07-20T03:22:40;19.50;80.10
20349;DHT22;10332;50.208;18.988;2023-07-20T03:25:09;19.50;79.80
20349;DHT22;10332;50.208;18.988;2023-07-20T03:27:36;19.50;79.70
20349;DHT22;10332;50.208;18.988;2023-07-20T03:30:04;19.50;79.50
20349;DHT22;10332;50.208;18.988;2023-07-20T03:32:34;19.50;80.70
20349;DHT22;10332;50.208;18.988;2023-07-20T03:35:02;19.50;80.60
20349;DHT22;10332;50.208;18.988;2023-07-20T03:37:29;19.50;80.50
20349;DHT22;10332;50.208;18.988;2023-07-20T03:39:57;19.50;80.10
20349;DHT22;10332;50.208;18.988;2023-07-20T03:42:24;19.50;79.90
20349;DHT22;10332;50.208;18.988;2023-07-20T03:44:51;19.50;79.00
20349;DHT22;10332;50.208;18.988;2023-07-20T03:47:19;19.50;78.80
20349;DHT22;10332;50.208;18.988;2023-07-20T03:49:47;19.50;79.60
20349;DHT22;10332;50.208;18.988;2023-07-20T03:52:14;19.50;79.30
20349;DHT22;10332;50.208;18.988;2023-07-20T03:54:42;19.40;79.70
20349;DHT22;10332;50.208;18.988;2023-07-20T03:57:09;19.50;78.80
20349;DHT22;10332;50.208;18.988;2023-07-20T03:59:38;19.50;81.40
20349;DHT22;10332;50.208;18.988;2023-07-20T04:02:06;19.50;79.00
20349;DHT22;10332;50.208;18.988;2023-07-20T04:04:33;19.50;78.30
20349;DHT22;10332;50.208;18.988;2023-07-20T04:07:01;19.60;77.90
20349;DHT22;10332;50.208;18.988;2023-07-20T04:09:28;19.60;77.80
20349;DHT22;10332;50.208;18.988;2023-07-20T04:11:57;19.60;77.20
20349;DHT22;10332;50.208;18.988;2023-07-20T04:14:24;19.60;76.90
20349;DHT22;10332;50.208;18.988;2023-07-20T04:16:52;19.70;76.50
20349;DHT22;10332;50.208;18.988;2023-07-20T04:19:19;19.70;76.10
20349;DHT22;10332;50.208;18.988;2023-07-20T04:21:47;19.70;75.60
20349;DHT22;10332;50.208;18.988;2023-07-20T04:24:14;19.80;74.80
20349;DHT22;10332;50.208;18.988;2023-07-20T04:26:42;19.80;74.50
20349;DHT22;10332;50.208;18.988;2023-07-20T04:29:10;19.80;73.90
20349;DHT22;10332;50.208;18.988;2023-07-20T04:31:37;19.80;73.90
20349;DHT22;10332;50.208;18.988;2023-07-20T04:34:04;19.80;74.50
20349;DHT22;10332;50.208;18.988;2023-07-20T04:36:32;19.80;75.00
20349;DHT22;10332;50.208;18.988;2023-07-20T04:38:59;19.90;75.20
20349;DHT22;10332;50.208;18.988;2023-07-20T04:41:28;19.90;74.90
20349;DHT22;10332;50.208;18.988;2023-07-20T04:43:56;20.00;74.80
20349;DHT22;10332;50.208;18.988;2023-07-20T04:46:23;20.00;75.00
20349;DHT22;10332;50.208;18.988;2023-07-20T04:48:51;20.10;75.00
20349;DHT22;10332;50.208;18.988;2023-07-20T04:51:19;20.10;74.30
20349;DHT22;10332;50.208;18.988;2023-07-20T04:53:48;20.00;74.10
20349;DHT22;10332;50.208;18.988;2023-07-20T04:56:15;20.00;74.80
20349;DHT22;10332;50.208;18.988;2023-07-20T04:58:43;20.00;74.70
20349;DHT22;10332;50.208;18.988;2023-07-20T05:01:10;20.10;74.80
20349;DHT22;10332;50.208;18.988;2023-07-20T05:03:38;20.10;75.20
20349;DHT22;10332;50.208;18.988;2023-07-20T05:06:06;20.00;75.70
20349;DHT22;10332;50.208;18.988;2023-07-20T05:08:34;20.00;75.20
20349;DHT22;10332;50.208;18.988;2023-07-20T05:11:01;19.80;77.80
20349;DHT22;10332;50.208;18.988;2023-07-20T05:13:29;19.70;78.70
20349;DHT22;10332;50.208;18.988;2023-07-20T05:15:56;19.70;82.10
20349;DHT22;10332;50.208;18.988;2023-07-20T05:18:24;19.70;81.00
20349;DHT22;10332;50.208;18.988;2023-07-20T05:20:52;19.80;80.70
20349;DHT22;10332;50.208;18.988;2023-07-20T05:23:22;19.90;83.40
20349;DHT22;10332;50.208;18.988;2023-07-20T05:25:59;20.00;82.00
20349;DHT22;10332;50.208;18.988;2023-07-20T05:28:27;20.10;81.50
20349;DHT22;10332;50.208;18.988;2023-07-20T05:30:55;20.10;81.50
20349;DHT22;10332;50.208;18.988;2023-07-20T05:33:23;20.10;80.90
20349;DHT22;10332;50.208;18.988;2023-07-20T05:35:50;20.10;81.70
20349;DHT22;10332;50.208;18.988;2023-07-20T05:38:18;20.00;83.70
20349;DHT22;10332;50.208;18.988;2023-07-20T05:40:46;20.00;84.80
20349;DHT22;10332;50.208;18.988;2023-07-20T05:43:14;20.00;83.10
20349;DHT22;10332;50.208;18.988;2023-07-20T05:45:42;20.10;82.40
20349;DHT22;10332;50.208;18.988;2023-07-20T05:48:11;20.20;80.40
20349;DHT22;10332;50.208;18.988;2023-07-20T05:50:42;20.10;81.10
20349;DHT22;10332;50.208;18.988;2023-07-20T05:53:11;20.10;80.90
20349;DHT22;10332;50.208;18.988;2023-07-20T05:55:38;20.20;81.30
20349;DHT22;10332;50.208;18.988;2023-07-20T05:58:07;20.30;79.00
20349;DHT22;10332;50.208;18.988;2023-07-20T06:00:35;20.30;79.30
20349;DHT22;10332;50.208;18.988;2023-07-20T06:03:02;20.30;79.00
20349;DHT22;10332;50.208;18.988;2023-07-20T06:05:30;20.30;77.50
20349;DHT22;10332;50.208;18.988;2023-07-20T06:07:58;20.30;77.90
20349;DHT22;10332;50.208;18.988;2023-07-20T06:10:27;20.20;77.00
20349;DHT22;10332;50.208;18.988;2023-07-20T06:12:55;20.20;77.10
20349;DHT22;10332;50.208;18.988;2023-07-20T06:15:32;20.00;78.40
20349;DHT22;10332;50.208;18.988;2023-07-20T06:18:02;20.00;80.30
20349;DHT22;10332;50.208;18.988;2023-07-20T06:20:31;20.00;81.50
20349;DHT22;10332;50.208;18.988;2023-07-20T06:22:58;20.00;81.20
20349;DHT22;10332;50.208;18.988;2023-07-20T06:25:26;19.90;80.20
20349;DHT22;10332;50.208;18.988;2023-07-20T06:27:55;19.90;80.20
20349;DHT22;10332;50.208;18.988;2023-07-20T06:30:23;20.00;81.40
20349;DHT22;10332;50.208;18.988;2023-07-20T06:32:51;20.20;78.70
20349;DHT22;10332;50.208;18.988;2023-07-20T06:35:19;20.40;75.40
20349;DHT22;10332;50.208;18.988;2023-07-20T06:37:46;20.60;72.50
20349;DHT22;10332;50.208;18.988;2023-07-20T06:40:14;20.80;70.60
20349;DHT22;10332;50.208;18.988;2023-07-20T06:42:44;20.90;69.20
20349;DHT22;10332;50.208;18.988;2023-07-20T06:45:15;21.10;67.50
20349;DHT22;10332;50.208;18.988;2023-07-20T06:47:45;21.20;64.10
20349;DHT22;10332;50.208;18.988;2023-07-20T06:50:13;21.30;57.50
20349;DHT22;10332;50.208;18.988;2023-07-20T06:52:44;21.40;59.10
20349;DHT22;10332;50.208;18.988;2023-07-20T06:55:15;21.50;58.70
20349;DHT22;10332;50.208;18.988;2023-07-20T06:57:50;21.50;57.00
20349;DHT22;10332;50.208;18.988;2023-07-20T07:00:18;21.40;57.60
20349;DHT22;10332;50.208;18.988;2023-07-20T07:02:46;21.40;58.00
20349;DHT22;10332;50.208;18.988;2023-07-20T07:05:17;21.40;58.90
20349;DHT22;10332;50.208;18.988;2023-07-20T07:07:47;21.50;59.10
20349;DHT22;10332;50.208;18.988;2023-07-20T07:10:16;21.60;57.40
20349;DHT22;10332;50.208;18.988;2023-07-20T07:12:43;21.60;57.30
20349;DHT22;10332;50.208;18.988;2023-07-20T07:15:11;21.60;57.40
20349;DHT22;10332;50.208;18.988;2023-07-20T07:17:38;21.70;57.70
20349;DHT22;10332;50.208;18.988;2023-07-20T07:20:06;21.80;56.80
20349;DHT22;10332;50.208;18.988;2023-07-20T07:22:47;21.80;53.40
20349;DHT22;10332;50.208;18.988;2023-07-20T07:25:19;22.10;49.90
20349;DHT22;10332;50.208;18.988;2023-07-20T07:30:20;21.90;43.60
20349;DHT22;10332;50.208;18.988;2023-07-20T07:32:48;21.80;44.90
20349;DHT22;10332;50.208;18.988;2023-07-20T07:35:16;21.70;40.80
20349;DHT22;10332;50.208;18.988;2023-07-20T07:37:44;21.80;43.30
20349;DHT22;10332;50.208;18.988;2023-07-20T07:40:32;22.10;42.50
20349;DHT22;10332;50.208;18.988;2023-07-20T07:43:00;22.30;38.40
20349;DHT22;10332;50.208;18.988;2023-07-20T07:45:28;22.40;36.00
20349;DHT22;10332;50.208;18.988;2023-07-20T07:47:56;22.50;36.60
20349;DHT22;10332;50.208;18.988;2023-07-20T07:50:24;22.60;35.50
20349;DHT22;10332;50.208;18.988;2023-07-20T07:52:52;22.80;34.10
20349;DHT22;10332;50.208;18.988;2023-07-20T07:55:19;22.80;32.00
20349;DHT22;10332;50.208;18.988;2023-07-20T07:57:47;22.90;32.40
20349;DHT22;10332;50.208;18.988;2023-07-20T08:00:15;23.00;32.40
20349;DHT22;10332;50.208;18.988;2023-07-20T08:02:46;23.30;28.70
20349;DHT22;10332;50.208;18.988;2023-07-20T08:05:15;23.60;27.10
20349;DHT22;10332;50.208;18.988;2023-07-20T08:07:43;23.50;21.80
20349;DHT22;10332;50.208;18.988;2023-07-20T08:10:11;23.20;20.50
20349;DHT22;10332;50.208;18.988;2023-07-20T08:12:39;22.90;24.30
20349;DHT22;10332;50.208;18.988;2023-07-20T08:15:07;22.60;27.80
20349;DHT22;10332;50.208;18.988;2023-07-20T08:17:38;22.40;29.40
20349;DHT22;10332;50.208;18.988;2023-07-20T08:20:07;22.50;30.10
20349;DHT22;10332;50.208;18.988;2023-07-20T08:22:39;22.70;28.70
20349;DHT22;10332;50.208;18.988;2023-07-20T08:25:07;22.80;28.20
20349;DHT22;10332;50.208;18.988;2023-07-20T08:27:36;23.10;28.40
20349;DHT22;10332;50.208;18.988;2023-07-20T08:30:05;23.50;25.80
20349;DHT22;10332;50.208;18.988;2023-07-20T08:32:34;23.80;22.20
20349;DHT22;10332;50.208;18.988;2023-07-20T08:35:01;24.00;22.10
20349;DHT22;10332;50.208;18.988;2023-07-20T08:37:29;24.20;20.90
20349;DHT22;10332;50.208;18.988;2023-07-20T08:39:56;24.20;18.40
20349;DHT22;10332;50.208;18.988;2023-07-20T08:42:24;24.30;18.70
20349;DHT22;10332;50.208;18.988;2023-07-20T08:44:53;24.20;18.20
20349;DHT22;10332;50.208;18.988;2023-07-20T08:47:24;24.00;18.00
20349;DHT22;10332;50.208;18.988;2023-07-20T08:49:54;23.70;19.20
20349;DHT22;10332;50.208;18.988;2023-07-20T08:52:23;23.50;21.90
20349;DHT22;10332;50.208;18.988;2023-07-20T08:54:52;23.50;23.10
20349;DHT22;10332;50.208;18.988;2023-07-20T08:57:21;23.80;22.60
20349;DHT22;10332;50.208;18.988;2023-07-20T08:59:50;24.10;20.80
20349;DHT22;10332;50.208;18.988;2023-07-20T09:02:21;24.00;18.70
20349;DHT22;10332;50.208;18.988;2023-07-20T09:04:54;23.90;19.60
20349;DHT22;10332;50.208;18.988;2023-07-20T09:07:22;24.00;19.50
20349;DHT22;10332;50.208;18.988;2023-07-20T09:09:51;24.10;20.40
20349;DHT22;10332;50.208;18.988;2023-07-20T09:12:19;24.20;17.50
20349;DHT22;10332;50.208;18.988;2023-07-20T09:14:46;24.40;16.00
20349;DHT22;10332;50.208;18.988;2023-07-20T09:17:15;24.50;14.70
20349;DHT22;10332;50.208;18.988;2023-07-20T09:19:50;24.80;15.10
20349;DHT22;10332;50.208;18.988;2023-07-20T09:22:18;25.10;13.80
20349;DHT22;10332;50.208;18.988;2023-07-20T09:24:45;25.40;11.90
20349;DHT22;10332;50.208;18.988;2023-07-20T09:27:13;25.60;6.80
20349;DHT22;10332;50.208;18.988;2023-07-20T09:29:50;25.80;3.10
20349;DHT22;10332;50.208;18.988;2023-07-20T09:32:20;25.70;2.10
20349;DHT22;10332;50.208;18.988;2023-07-20T09:34:52;25.60;2.60
20349;DHT22;10332;50.208;18.988;2023-07-20T09:37:23;25.50;4.40
20349;DHT22;10332;50.208;18.988;2023-07-20T09:39:52;25.60;4.30
20349;DHT22;10332;50.208;18.988;2023-07-20T09:42:23;25.60;1.10
20349;DHT22;10332;50.208;18.988;2023-07-20T09:44:56;25.60;1.00
20349;DHT22;10332;50.208;18.988;2023-07-20T09:47:24;25.70;1.00
20349;DHT22;10332;50.208;18.988;2023-07-20T09:49:58;26.10;1.00
20349;DHT22;10332;50.208;18.988;2023-07-20T09:52:34;26.40;1.00
20349;DHT22;10332;50.208;18.988;2023-07-20T09:55:08;26.10;1.00
20349;DHT22;10332;50.208;18.988;2023-07-20T09:57:37;25.80;1.00
20349;DHT22;10332;50.208;18.988;2023-07-20T10:00:06;25.60;1.00
20349;DHT22;10332;50.208;18.988;2023-07-20T10:02:43;25.70;1.50
20349;DHT22;10332;50.208;18.988;2023-07-20T10:05:15;26.20;1.70
20349;DHT22;10332;50.208;18.988;2023-07-20T10:07:47;27.00;1.00
20349;DHT22;10332;50.208;18.988;2023-07-20T10:10:18;27.80;1.00
20349;DHT22;10332;50.208;18.988;2023-07-20T10:12:48;28.40;1.00
20349;DHT22;10332;50.208;18.988;2023-07-20T10:15:29;29.10;1.00
20349;DHT22;10332;50.208;18.988;2023-07-20T10:18:34;29.20;1.00
20349;DHT22;10332;50.208;18.988;2023-07-20T10:21:07;29.40;1.00
20349;DHT22;10332;50.208;18.988;2023-07-20T10:23:40;30.10;1.00
20349;DHT22;10332;50.208;18.988;2023-07-20T10:26:08;30.80;1.00
20349;DHT22;10332;50.208;18.988;2023-07-20T10:28:38;31.40;1.00
20349;DHT22;10332;50.208;18.988;2023-07-20T10:31:11;31.50;1.00
20349;DHT22;10332;50.208;18.988;2023-07-20T10:33:41;31.00;1.00
20349;DHT22;10332;50.208;18.988;2023-07-20T10:36:10;30.50;1.00
20349;DHT22;10332;50.208;18.988;2023-07-20T10:38:41;29.70;1.00
20349;DHT22;10332;50.208;18.988;2023-07-20T10:41:17;29.60;1.00
20349;DHT22;10332;50.208;18.988;2023-07-20T10:43:49;30.30;1.00
20349;DHT22;10332;50.208;18.988;2023-07-20T10:49:09;30.90;1.00
20349;DHT22;10332;50.208;18.988;2023-07-20T10:51:41;30.80;1.00
20349;DHT22;10332;50.208;18.988;2023-07-20T10:56:47;30.40;1.00
20349;DHT22;10332;50.208;18.988;2023-07-20T10:59:43;30.00;1.00
20349;DHT22;10332;50.208;18.988;2023-07-20T11:02:08;29.60;1.00
20349;DHT22;10332;50.208;18.988;2023-07-20T11:07:07;29.20;1.00
20349;DHT22;10332;50.208;18.988;2023-07-20T11:09:36;29.00;1.00
20349;DHT22;10332;50.208;18.988;2023-07-20T11:12:13;28.70;1.00
20349;DHT22;10332;50.208;18.988;2023-07-20T11:15:04;28.50;1.00
20349;DHT22;10332;50.208;18.988;2023-07-20T11:17:31;28.30;1.00
20349;DHT22;10332;50.208;18.988;2023-07-20T11:20:01;28.00;1.00
20349;DHT22;10332;50.208;18.988;2023-07-20T11:22:32;27.80;1.00
20349;DHT22;10332;50.208;18.988;2023-07-20T11:25:01;27.70;1.00
20349;DHT22;10332;50.208;18.988;2023-07-20T11:27:28;27.60;1.00
20349;DHT22;10332;50.208;18.988;2023-07-20T11:29:56;27.60;1.00
20349;DHT22;10332;50.208;18.988;2023-07-20T11:32:24;27.60;1.00
20349;DHT22;10332;50.208;18.988;2023-07-20T11:34:52;27.80;1.00
20349;DHT22;10332;50.208;18.988;2023-07-20T11:37:19;27.80;1.00
20349;DHT22;10332;50.208;18.988;2023-07-20T11:39:47;28.00;1.00
20349;DHT22;10332;50.208;18.988;2023-07-20T11:42:15;28.10;1.00
20349;DHT22;10332;50.208;18.988;2023-07-20T11:44:45;28.20;1.00
20349;DHT22;10332;50.208;18.988;2023-07-20T11:47:19;28.20;1.00
20349;DHT22;10332;50.208;18.988;2023-07-20T11:49:46;28.20;1.00
20349;DHT22;10332;50.208;18.988;2023-07-20T11:52:23;28.30;1.00
20349;DHT22;10332;50.208;18.988;2023-07-20T11:54:58;28.30;1.00
20349;DHT22;10332;50.208;18.988;2023-07-20T11:57:25;28.40;1.00
20349;DHT22;10332;50.208;18.988;2023-07-20T11:59:58;28.40;1.00
20349;DHT22;10332;50.208;18.988;2023-07-20T12:02:29;28.40;1.00
20349;DHT22;10332;50.208;18.988;2023-07-20T12:04:59;28.40;1.00
20349;DHT22;10332;50.208;18.988;2023-07-20T12:07:29;28.40;1.00
20349;DHT22;10332;50.208;18.988;2023-07-20T12:10:07;28.30;1.00
20349;DHT22;10332;50.208;18.988;2023-07-20T12:12:40;28.30;1.00
20349;DHT22;10332;50.208;18.988;2023-07-20T12:15:22;28.30;1.00
20349;DHT22;10332;50.208;18.988;2023-07-20T12:17:55;28.20;1.00
20349;DHT22;10332;50.208;18.988;2023-07-20T12:20:29;28.00;1.00
20349;DHT22;10332;50.208;18.988;2023-07-20T12:23:00;27.90;1.00
20349;DHT22;10332;50.208;18.988;2023-07-20T12:25:47;28.10;1.00
20349;DHT22;10332;50.208;18.988;2023-07-20T12:28:16;28.20;1.00
20349;DHT22;10332;50.208;18.988;2023-07-20T12:30:47;28.30;1.00
20349;DHT22;10332;50.208;18.988;2023-07-20T12:33:23;28.40;1.00
20349;DHT22;10332;50.208;18.988;2023-07-20T12:35:51;28.20;1.00
20349;DHT22;10332;50.208;18.988;2023-07-20T12:38:23;28.20;1.00
20349;DHT22;10332;50.208;18.988;2023-07-20T12:40:50;28.10;1.00
20349;DHT22;10332;50.208;18.988;2023-07-20T12:43:18;28.10;1.00
20349;DHT22;10332;50.208;18.988;2023-07-20T12:45:45;28.10;1.00
20349;DHT22;10332;50.208;18.988;2023-07-20T12:48:13;28.10;1.00
20349;DHT22;10332;50.208;18.988;2023-07-20T12:50:41;28.20;1.00
20349;DHT22;10332;50.208;18.988;2023-07-20T12:53:09;28.20;1.00
20349;DHT22;10332;50.208;18.988;2023-07-20T12:55:38;28.10;1.00
20349;DHT22;10332;50.208;18.988;2023-07-20T12:58:08;28.10;1.00
20349;DHT22;10332;50.208;18.988;2023-07-20T13:00:37;28.10;1.00
20349;DHT22;10332;50.208;18.988;2023-07-20T13:03:04;28.20;1.00
20349;DHT22;10332;50.208;18.988;2023-07-20T13:05:36;28.10;1.00
20349;DHT22;10332;50.208;18.988;2023-07-20T13:08:06;27.90;1.00
20349;DHT22;10332;50.208;18.988;2023-07-20T13:10:37;27.70;1.00
20349;DHT22;10332;50.208;18.988;2023-07-20T13:13:08;27.50;1.00
20349;DHT22;10332;50.208;18.988;2023-07-20T13:15:43;27.50;1.00
20349;DHT22;10332;50.208;18.988;2023-07-20T13:18:11;27.60;1.00
20349;DHT22;10332;50.208;18.988;2023-07-20T13:20:39;27.70;1.00
20349;DHT22;10332;50.208;18.988;2023-07-20T13:23:07;27.80;1.00
20349;DHT22;10332;50.208;18.988;2023-07-20T13:25:35;27.80;1.00
20349;DHT22;10332;50.208;18.988;2023-07-20T13:28:03;27.80;1.00
20349;DHT22;10332;50.208;18.988;2023-07-20T13:30:32;28.00;1.00
20349;DHT22;10332;50.208;18.988;2023-07-20T13:33:00;27.90;1.00
20349;DHT22;10332;50.208;18.988;2023-07-20T13:35:33;27.80;1.00
20349;DHT22;10332;50.208;18.988;2023-07-20T13:38:03;27.80;1.00
20349;DHT22;10332;50.208;18.988;2023-07-20T13:40:31;27.80;1.00
20349;DHT22;10332;50.208;18.988;2023-07-20T13:42:58;27.90;1.00
20349;DHT22;10332;50.208;18.988;2023-07-20T13:45:26;28.00;1.00
20349;DHT22;10332;50.208;18.988;2023-07-20T13:47:53;28.00;1.00
20349;DHT22;10332;50.208;18.988;2023-07-20T13:50:21;28.10;1.00
20349;DHT22;10332;50.208;18.988;2023-07-20T13:52:53;28.10;1.00
20349;DHT22;10332;50.208;18.988;2023-07-20T13:55:40;28.00;1.00
20349;DHT22;10332;50.208;18.988;2023-07-20T13:58:11;27.80;1.00
20349;DHT22;10332;50.208;18.988;2023-07-20T14:00:40;27.60;1.00
20349;DHT22;10332;50.208;18.988;2023-07-20T14:03:07;27.50;1.00
20349;DHT22;10332;50.208;18.988;2023-07-20T14:05:39;27.30;1.00
20349;DHT22;10332;50.208;18.988;2023-07-20T14:08:10;27.10;1.00
20349;DHT22;10332;50.208;18.988;2023-07-20T14:10:37;26.90;1.00
20349;DHT22;10332;50.208;18.988;2023-07-20T14:13:08;26.60;1.00
20349;DHT22;10332;50.208;18.988;2023-07-20T14:15:35;26.30;1.00
20349;DHT22;10332;50.208;18.988;2023-07-20T14:18:03;26.10;1.00
20349;DHT22;10332;50.208;18.988;2023-07-20T14:20:31;25.90;1.00
20349;DHT22;10332;50.208;18.988;2023-07-20T14:22:58;25.70;1.00
20349;DHT22;10332;50.208;18.988;2023-07-20T14:25:26;25.40;1.00
20349;DHT22;10332;50.208;18.988;2023-07-20T14:27:55;25.30;1.00
20349;DHT22;10332;50.208;18.988;2023-07-20T14:30:23;25.20;1.00
20349;DHT22;10332;50.208;18.988;2023-07-20T14:32:51;25.10;1.00
20349;DHT22;10332;50.208;18.988;2023-07-20T14:35:18;25.00;1.00
20349;DHT22;10332;50.208;18.988;2023-07-20T14:37:47;24.80;1.00
20349;DHT22;10332;50.208;18.988;2023-07-20T14:40:14;24.60;1.00
20349;DHT22;10332;50.208;18.988;2023-07-20T14:42:42;24.40;1.00
20349;DHT22;10332;50.208;18.988;2023-07-20T14:45:09;24.20;1.00
20349;DHT22;10332;50.208;18.988;2023-07-20T14:47:37;23.90;6.20
20349;DHT22;10332;50.208;18.988;2023-07-20T14:50:06;23.70;13.50
20349;DHT22;10332;50.208;18.988;2023-07-20T14:52:33;23.60;17.90
20349;DHT22;10332;50.208;18.988;2023-07-20T14:55:01;23.30;24.70
20349;DHT22;10332;50.208;18.988;2023-07-20T14:57:29;23.00;30.10
20349;DHT22;10332;50.208;18.988;2023-07-20T14:59:56;22.70;32.30
20349;DHT22;10332;50.208;18.988;2023-07-20T15:02:23;22.50;34.80
20349;DHT22;10332;50.208;18.988;2023-07-20T15:04:52;22.30;36.10
20349;DHT22;10332;50.208;18.988;2023-07-20T15:07:20;22.30;39.10
20349;DHT22;10332;50.208;18.988;2023-07-20T15:09:49;22.30;39.10
20349;DHT22;10332;50.208;18.988;2023-07-20T15:12:17;22.20;38.70
20349;DHT22;10332;50.208;18.988;2023-07-20T15:15:02;22.30;40.90
20349;DHT22;10332;50.208;18.988;2023-07-20T15:17:34;22.40;40.50
20349;DHT22;10332;50.208;18.988;2023-07-20T15:20:04;22.60;39.80
20349;DHT22;10332;50.208;18.988;2023-07-20T15:22:34;22.70;36.70
20349;DHT22;10332;50.208;18.988;2023-07-20T15:25:08;23.00;35.30
20349;DHT22;10332;50.208;18.988;2023-07-20T15:27:39;23.20;33.40
20349;DHT22;10332;50.208;18.988;2023-07-20T15:30:16;23.30;30.00
20349;DHT22;10332;50.208;18.988;2023-07-20T15:32:47;23.30;27.90
20349;DHT22;10332;50.208;18.988;2023-07-20T15:35:18;23.30;28.70
20349;DHT22;10332;50.208;18.988;2023-07-20T15:37:45;23.20;27.90
20349;DHT22;10332;50.208;18.988;2023-07-20T15:40:13;23.30;27.10
20349;DHT22;10332;50.208;18.988;2023-07-20T15:42:40;23.40;21.70
20349;DHT22;10332;50.208;18.988;2023-07-20T15:45:09;23.40;21.10
20349;DHT22;10332;50.208;18.988;2023-07-20T15:47:36;23.50;20.60
20349;DHT22;10332;50.208;18.988;2023-07-20T15:50:05;23.40;19.00
20349;DHT22;10332;50.208;18.988;2023-07-20T15:52:33;23.50;18.90
20349;DHT22;10332;50.208;18.988;2023-07-20T15:55:01;23.50;18.70
20349;DHT22;10332;50.208;18.988;2023-07-20T15:57:29;23.50;15.80
20349;DHT22;10332;50.208;18.988;2023-07-20T15:59:57;23.40;15.70